Portada
METAR-TAF:

METAR-TAF

Aeropuertos :

Souillac

Brive-la-Gaillarde, Francia

latitud: 45-02-28N, longitud: 001-28-59E, altitud: 311 m

Observación

El informe se hizo hace 46 minutos, a las 21:00 UTC
Viento calma
Temperatura 0°C
Humedad 93%
Presión 1004 hPa
Visibilidad 10 km o más
Escasas nubes a una altura de 4800 ft
Nubes dispersas a una altura de 9200 ft

METAR: LFSL 202100Z AUTO 00000KT 9999 FEW048 SCT092 00/M01 Q1004 NOSIG

Hora: 22:46 (21:46 UTC)

Pronóstico

El informe se hizo hace 4 horas y 46 minutos, a las 17:00 UTC
Pronóstico válido del 20 a las 18 UTC al 21 a las 03 UTC
Viento 2 kt con dirección variable
Visibilidad 10 km o más
sin nubes por debajo de 1500 m y sin presencia de cumulonimbus.

TAF: LFSL 201700Z 2018/2103 VRB02KT CAVOK

Observaciones y pronósticos meteorológicos de más de 4000 aeropuertos (mensajes METAR y TAF).

Los puntos amarillos y rojos representan las estaciones disponibles.

Ponga el ratón en el punto deseado para ver el nombre de la estación.

Haga clic para ver las observaciones y los pronósticos meteorológicos.

Para cambiar el mapa : haga clic en los botones verdes con una cruz de color negro para hacer un zoom, en el botón verde con un guión para alejar o en las flechas verdes para mapas adyacentes.


METAR-TAF: